Home > Products > Valid Products > MTR

000
SAUS46 KPDT 030700
MTRMEH
METAR KMEH 030656Z AUTO 10SM OVC070 11/03 A2991 RMK AO2 SLP109
T01110028





000
SAUS46 KPDT 030634
MTRMEH
SPECI KMEH 030630Z AUTO 10SM SCT029 BKN049 OVC060 12/04 A2991 RMK
AO2 T01170044





000
SAUS46 KPDT 030600
MTRMEH
METAR KMEH 030556Z AUTO 10SM OVC025 12/07 A2990 RMK AO2 SLP107
T01170067 10222 20117 51016





000
SAUS46 KPDT 030531
MTRMEH
SPECI KMEH 030527Z AUTO 00000KT 10SM BKN025 BKN030 12/07 A2989 RMK
AO2 T01220067





000
SAUS46 KPDT 030500
MTRMEH
METAR KMEH 030456Z AUTO 10SM BKN070 12/07 A2990 RMK AO2 SLP108
T01220067





000
SAUS46 KPDT 030400
MTRMEH
METAR KMEH 030356Z AUTO 27004KT 10SM CLR 13/06 A2989 RMK AO2 SLP108
T01330061





000
SAUS46 KPDT 030300
MTRMEH
METAR KMEH 030256Z AUTO VRB04KT 10SM CLR 15/06 A2985 RMK AO2 SLP101
T01500056 53002





000
SAUS46 KPDT 030200
MTRMEH
METAR KMEH 030156Z AUTO VRB03KT 10SM CLR 17/05 A2984 RMK AO2 SLP101
T01720050





000
SAUS46 KPDT 030100
MTRMEH
METAR KMEH 030056Z AUTO 29008KT 250V340 10SM CLR 21/02 A2984 RMK AO2
SLP097 T02060022





000
SAUS46 KPDT 030000
MTRMEH
METAR KMEH 022356Z AUTO VRB04KT 10SM CLR 22/03 A2984 RMK AO2 SLP096
T02220028 10228 20200 56014





000
SAUS46 KPDT 022300
MTRMEH
METAR KMEH 022256Z AUTO 10SM CLR 23/05 A2986 RMK AO2 SLP099
T02280050





000
SAUS46 KPDT 022200
MTRMEH
METAR KMEH 022156Z AUTO 00000KT 10SM CLR 22/07 A2987 RMK AO2 SLP104
T02220072





000
SAUS46 KPDT 022057
MTRMEH
METAR KMEH 022056Z AUTO VRB03KT 10SM CLR 22/08 A2989 RMK AO2 SLP109
T02220083 56006





000
SAUS46 KPDT 022002 COR
MTRMEH
METAR KMEH 021956Z AUTO VRB04KT 10SM CLR 21/08 A2989 RMK AO2 SLP111
T02110078





000
SAUS46 KPDT 021900
MTRMEH
METAR KMEH 021856Z AUTO 30007KT 250V320 10SM CLR 21/08 A2990 RMK AO2
SLP112 T02060078





000
SAUS46 KPDT 021758
MTRMEH
METAR KMEH 021756Z AUTO VRB04KT 10SM CLR 20/07 A2991 RMK AO2 SLP114
T02000072 10206 20011 58015





000
SAUS46 KPDT 021656
MTRMEH
METAR KMEH 021656Z AUTO 00000KT 10SM CLR 18/08 A2993 RMK AO2 SLP123
T01780078





000
SAUS46 KPDT 021556
MTRMEH
METAR KMEH 021556Z AUTO 00000KT 10SM CLR 14/07 A2994 RMK AO2 SLP130
T01440072





000
SAUS46 KPDT 021456
MTRMEH
METAR KMEH 021456Z AUTO 00000KT 10SM CLR 07/04 A2996 RMK AO2 SLP140
T00670039 58006





000
SAUS46 KPDT 021357
MTRMEH
METAR KMEH 021356Z AUTO 00000KT 10SM CLR 02/01 A2997 RMK AO2 SLP144
T00220011





000
SAUS46 KPDT 021256
MTRMEH
METAR KMEH 021256Z AUTO 00000KT 10SM CLR 02/01 A2997 RMK AO2 SLP144
T00170006





000
SAUS46 KPDT 021200
MTRMEH
METAR KMEH 021156Z AUTO 00000KT 10SM CLR 02/01 A2998 RMK AO2 SLP144
T00170011 10072 20017 58008





000
SAUS46 KPDT 021058
MTRMEH
METAR KMEH 021056Z AUTO 00000KT 10SM CLR 03/02 A2999 RMK AO2 SLP148
T00280017





000
SAUS46 KPDT 021000 COR
MTRMEH
METAR KMEH 020956Z AUTO 00000KT 10SM CLR 03/02 A3000 RMK AO2 SLP152
T00330022





000
SAUS46 KPDT 020957 COR
MTRMEH
METAR KMEH 020956Z AUTO 00000KT 10SM CLR 03/02 A3000 RMK AO2 SLP152
T00330022





000
SAUS46 KPDT 020857
MTRMEH
METAR KMEH 020856Z AUTO 00000KT 10SM CLR 04/03 A3000 RMK AO2 SLP153
T00390028 56007





000
SAUS46 KPDT 020757
MTRMEH
METAR KMEH 020756Z AUTO 00000KT 10SM CLR 05/03 A3001 RMK AO2 SLP156
T00500033 402170028





000
SAUS46 KPDT 020656
MTRMEH
METAR KMEH 020656Z AUTO 00000KT 10SM CLR 06/04 A3001 RMK AO2 SLP157
T00560039





000
SAUS46 KPDT 020557
MTRMEH
METAR KMEH 020556Z AUTO 00000KT 10SM CLR 07/05 A3003 RMK AO2 SLP161
T00720050 10211 20072 58004





000
SAUS46 KPDT 020456
MTRMEH
METAR KMEH 020456Z AUTO 00000KT 10SM CLR 09/06 A3004 RMK AO2 SLP169
T00890056





000
SAUS46 KPDT 020357
MTRMEH
METAR KMEH 020356Z AUTO 00000KT 10SM CLR 11/06 A3005 RMK AO2 SLP171
T01060056





000
SAUS46 KPDT 020357
MTRMEH
METAR KMEH 020356Z AUTO 00000KT 10SM CLR 11/06 A3005 RMK AO2 SLP171
T01060056





000
SAUS46 KPDT 020257
MTRMEH
METAR KMEH 020256Z AUTO 00000KT 10SM CLR 14/05 A3004 RMK AO2 SLP170
T01390050 55006





000
SAUS46 KPDT 020158
MTRMEH
METAR KMEH 020156Z AUTO 00000KT 10SM CLR 18/04 A3004 RMK AO2 SLP167
T01780039





000
SAUS46 KPDT 020056
MTRMEH
METAR KMEH 020056Z AUTO 00000KT 10SM CLR 21/03 A3004 RMK AO2 SLP168
T02060033





000
SAUS46 KPDT 012356
MTRMEH
METAR KMEH 012356Z AUTO VRB03KT 10SM CLR 21/04 A3006 RMK AO2 SLP170
T02110044 10217 20156 58010





000
SAUS46 KPDT 012257
MTRMEH
METAR KMEH 012256Z AUTO 26005KT 10SM CLR 21/04 A3007 RMK AO2 SLP174
T02060039





000
SAUS46 KPDT 012158
MTRMEH
METAR KMEH 012156Z AUTO 33004KT 10SM CLR 20/04 A3009 RMK AO2 SLP179
T02000044





000
SAUS46 KPDT 012058
MTRMEH
METAR KMEH 012056Z AUTO VRB04KT 10SM CLR 19/06 A3010 RMK AO2 SLP181
T01940056 58009





000
SAUS46 KPDT 011956
MTRMEH
METAR KMEH 011956Z AUTO 00000KT 10SM CLR 18/06 A3011 RMK AO2 SLP186
T01780056





000
SAUS46 KPDT 011856
MTRMEH
METAR KMEH 011856Z AUTO 00000KT 10SM CLR 18/06 A3012 RMK AO2 SLP190
T01780061





000
SAUS46 KPDT 011757
MTRMEH
METAR KMEH 011756Z AUTO VRB03KT 10SM FEW031 16/07 A3012 RMK AO2
SLP196 T01560067 10156 20028 50001





000
SAUS46 KPDT 011728
MTRMEH
SPECI KMEH 011728Z AUTO VRB04KT 10SM SCT028 14/07 A3013 RMK AO2
T01440067





000
SAUS46 KPDT 011720
MTRMEH
SPECI KMEH 011719Z AUTO 00000KT 10SM BKN027 14/07 A3013 RMK AO2
T01440067





000
SAUS46 KPDT 011710
MTRMEH
SPECI KMEH 011708Z AUTO VRB04KT 10SM SCT027 14/07 A3013 RMK AO2
T01390067





000
SAUS46 KPDT 011658
MTRMEH
METAR KMEH 011656Z AUTO VRB05KT 10SM BKN027 13/07 A3013 RMK AO2
SLP200 T01330067





000
SAUS46 KPDT 011558
MTRMEH
METAR KMEH 011556Z AUTO 00000KT 10SM OVC028 10/07 A3012 RMK AO2
SLP198 T01000072





000
SAUS46 KPDT 011554
MTRMEH
SPECI KMEH 011552Z AUTO 00000KT 10SM OVC030 10/07 A3012 RMK AO2





000
SAUS46 KPDT 011457
MTRMEH
METAR KMEH 011456Z AUTO 00000KT 10SM FEW021 OVC028 06/05 A3011 RMK
AO2 SLP198 T00610050 51006





000
SAUS46 KPDT 011357
MTRMEH
METAR KMEH 011356Z AUTO 00000KT 10SM OVC026 03/03 A3011 RMK AO2
SLP196 T00330028





000
SAUS46 KPDT 011334
MTRMEH
SPECI KMEH 011333Z AUTO 00000KT 10SM BKN025 03/02 A3011 RMK AO2
T00280022





000
SAUS46 KPDT 011256
MTRMEH
METAR KMEH 011256Z AUTO 00000KT 10SM SCT033 03/02 A3010 RMK AO2
SLP191 T00280022





000
SAUS46 KPDT 011157
MTRMEH
METAR KMEH 011156Z AUTO 00000KT 10SM CLR 04/03 A3010 RMK AO2 SLP188
T00390028 10078 20039 53002





000
SAUS46 KPDT 011124
MTRMEH
SPECI KMEH 011124Z AUTO 00000KT 10SM SCT022 04/03 A3009 RMK AO2
T00440033





000
SAUS46 KPDT 011058
MTRMEH
METAR KMEH 011056Z AUTO 00000KT 10SM OVC024 05/04 A3009 RMK AO2
SLP184 T00500039





000
SAUS46 KPDT 011025
MTRMEH
SPECI KMEH 011025Z AUTO 00000KT 10SM BKN025 05/04 A3009 RMK AO2
T00500039





000
SAUS46 KPDT 010957
MTRMEH
METAR KMEH 010956Z AUTO 00000KT 10SM CLR 05/04 A3009 RMK AO2 SLP187
T00500039





000
SAUS46 KPDT 010856
MTRMEH
METAR KMEH 010856Z AUTO 00000KT 10SM BKN033 07/05 A3009 RMK AO2
SLP183 T00670050 51004





000
SAUS46 KPDT 010756
MTRMEH
METAR KMEH 010756Z AUTO 00000KT 10SM BKN035 07/06 A3008 RMK AO2
SLP183 T00720056 401780061





000
SAUS46 KPDT 010656
MTRMEH
METAR KMEH 010656Z AUTO 00000KT 10SM OVC045 08/06 A3009 RMK AO2
SLP183 T00780056





000
SAUS46 KPDT 010557
MTRMEH
METAR KMEH 010556Z AUTO 00000KT 10SM SCT036 BKN048 07/05 A3008 RMK
AO2 SLP180 T00720050 10178 20067 51007





000
SAUS46 KPDT 010458
MTRMEH
METAR KMEH 010456Z AUTO 00000KT 10SM CLR 08/06 A3007 RMK AO2 SLP183
T00780056





000
SAUS46 KPDT 010356
MTRMEH
METAR KMEH 010356Z AUTO 00000KT 10SM CLR 10/06 A3007 RMK AO2 SLP178
T01000056





000
SAUS46 KPDT 010257
MTRMEH
METAR KMEH 010256Z AUTO 00000KT 10SM CLR 13/06 A3005 RMK AO2 SLP172
T01280056 53003





000
SAUS46 KPDT 010156
MTRMEH
METAR KMEH 010156Z AUTO 00000KT 10SM BKN055 15/05 A3005 RMK AO2
SLP169 T01500050





000
SAUS46 KPDT 010156
MTRMEH
METAR KMEH 010156Z AUTO 00000KT 10SM BKN055 15/05 A3005 RMK AO2
SLP169 T01500050





000
SAUS46 KPDT 010102 COR
MTRMEH
METAR KMEH 010056Z AUTO VRB03KT 10SM BKN050 17/05 A3004 RMK AO2
SLP168 T01670050





000
SAUS46 KPDT 010101
MTRMEH
METAR KM
NO CARRIER

RING

CONNECT 1200

PHXRR7NYL ALL
TTAA00 KNYL 010100
.A KNYL 0901 DH0100/PPH 0.00





000
SAUS46 KPDT 312357
MTRMEH
METAR KMEH 312356Z AUTO VRB03KT 10SM BKN055 17/04 A3004 RMK AO2
SLP166 T01720044 10178 20133 56007





000
SAUS46 KPDT 312256
MTRMEH
METAR KMEH 312256Z AUTO VRB05KT 10SM BKN050 17/04 A3005 RMK AO2
SLP166 T01720044





000
SAUS46 KPDT 312157
MTRMEH
METAR KMEH 312156Z AUTO 00000KT 10SM BKN050 BKN060 16/04 A3006 RMK
AO2 SLP168 T01560039





000
SAUS46 KPDT 312057
MTRMEH
METAR KMEH 312056Z AUTO 00000KT 10SM OVC049 17/05 A3007 RMK AO2
SLP169 T01670050 58003





000
SAUS46 KPDT 311956
MTRMEH
METAR KMEH 311956Z AUTO VRB04KT 10SM BKN043 OVC050 14/04 A3007 RMK
AO2 SLP174 T01440044





000
SAUS46 KPDT 311856
MTRMEH
METAR KMEH 311856Z AUTO 10SM BKN038 OVC045 14/06 A3008 RMK AO2
SLP178 T01390056





000
SAUS46 KPDT 311821
MTRMEH
SPECI KMEH 311817Z AUTO VRB05KT 10SM SCT030 BKN038 14/06 A3007 RMK
AO2 T01390056





000
SAUS46 KPDT 311808
MTRMEH
SPECI KMEH 311808Z AUTO VRB04KT 10SM BKN029 BKN039 13/07 A3008 RMK
AO2 T01330067





000
SAUS46 KPDT 311758
MTRMEH
METAR KMEH 311756Z AUTO 00000KT 10SM SCT029 BKN038 14/07 A3008 RMK
AO2 SLP175 T01440072 10144 20061 50002





000
SAUS46 KPDT 311732
MTRMEH
SPECI KMEH 311732Z AUTO 00000KT 10SM SCT026 OVC038 12/06 A3009 RMK
AO2 T01220061





000
SAUS46 KPDT 311722
MTRMEH
SPECI KMEH 311722Z AUTO VRB04KT 10SM BKN026 OVC036 12/07 A3009 RMK
AO2 T01170067





000
SAUS46 KPDT 311713
MTRMEH
SPECI KMEH 311713Z AUTO VRB03KT 10SM SCT026 OVC036 12/07 A3009 RMK
AO2 T01220072





000
SAUS46 KPDT 311656
MTRMEH
METAR KMEH 311656Z AUTO 00000KT 10SM BKN024 OVC034 11/07 A3009 RMK
AO2 SLP182 T01110067





000
SAUS46 KPDT 311653
MTRMEH
SPECI KMEH 311653Z AUTO 00000KT 10SM SCT024 OVC034 11/07 A3009 RMK
AO2





000
SAUS46 KPDT 311644
MTRMEH
SPECI KMEH 311642Z AUTO VRB03KT 10SM BKN024 OVC032 11/07 A3008 RMK
AO2 T01060067





000
SAUS46 KPDT 311637
MTRMEH
SPECI KMEH 311633Z AUTO 00000KT 10SM SCT024 OVC033 11/06 A3008 RMK
AO2 T01060061





000
SAUS46 KPDT 311623
MTRMEH
SPECI KMEH 311623Z AUTO 00000KT 10SM BKN026 OVC033 11/06 A3008 RMK
AO2 T01060061





000
SAUS46 KPDT 311558
MTRMEH
METAR KMEH 311556Z AUTO 00000KT 10SM BKN030 OVC036 11/07 A3007 RMK
AO2 SLP177 T01060067





000
SAUS46 KPDT 311520
MTRMEH
SPECI KMEH 311520Z AUTO 00000KT 10SM BKN028 09/07 A3006 RMK AO2
T00940072





000
SAUS46 KPDT 311457
MTRMEH
METAR KMEH 311456Z AUTO 00000KT 10SM SCT030 BKN037 09/08 A3006 RMK
AO2 SLP177 T00890078 51009





000
SAUS46 KPDT 311400 COR
MTRMEH
METAR KMEH 311356Z AUTO 00000KT 10SM OVC032 08/07 A3005 RMK AO2
SLP175 T00830067





000
SAUS46 KPDT 311357 COR
MTRMEH
METAR KMEH 311356Z AUTO 00000KT 10SM OVC032 08/07 A3005 RMK AO2
SLP175 T00830067





000
SAUS46 KPDT 311356
MTRMEH
METAR KMEH 311356Z AUTO 00000KT 10SM OVC032 08/07 A3005 RMK AO2
SLP175 T00830067





000
SAUS46 KPDT 311256
MTRMEH
METAR KMEH 311256Z AUTO 00000KT 10SM BKN030 07/06 A3005 RMK AO2
SLP174 T00670056





000
SAUS46 KPDT 311157
MTRMEH
METAR KMEH 311156Z AUTO 00000KT 10SM BKN037 07/06 A3003 RMK AO2
SLP170 60001 70039 T00720061 10111 20072 51004





000
SAUS46 KPDT 311056
MTRMEH
METAR KMEH 311056Z AUTO 00000KT 10SM CLR 08/07 A3003 RMK AO2 RAE00
SLP166 P0000 T00830072





000
SAUS46 KPDT 311041
MTRMEH
SPECI KMEH 311041Z AUTO 00000KT 10SM FEW014 SCT019 09/08 A3003 RMK
AO2 RAE00 P0000 T00940078





000
SAUS46 KPDT 310957
MTRMEH
METAR KMEH 310956Z AUTO 00000KT 10SM -RA SCT015 BKN020 OVC028 10/09
A3003 RMK AO2 RAB08 SLP153 P0001 T01000089





000
SAUS46 KPDT 310920
MTRMEH
SPECI KMEH 310919Z AUTO 30003KT 9SM -RA OVC014 10/09 A3002 RMK AO2
RAB08 P0001 T01000089





000
SAUS46 KPDT 310856
MTRMEH
METAR KMEH 310856Z AUTO 00000KT 10SM BKN016 OVC023 11/09 A3002 RMK
AO2 RAB47E56 SLP152 P0000 60000 T01060089 53006





000
SAUS46 KPDT 310757
MTRMEH
METAR KMEH 310756Z AUTO VRB03KT 10SM BKN028 OVC034 11/09 A3001 RMK
AO2 SLP149 T01060089 402060072





    US Dept of Commerce
    National Oceanic and Atmospheric Administration
    National Weather Service
    1325 East West Highway
    Silver Spring, MD 20910
    Page Author: NWS Internet Services Team
Disclaimer
Information Quality
Credits
Glossary
Privacy Policy
Freedom of Information Act (FOIA)
About Us
Career Opportunities